Time;durP1;ratioP1;P1;durP2;ratioP2;P2;SDS_P1;SDS_P2;PMS_P1;PMS_P2;Temp;Humidity;BMP_temperature;BMP_pressure;BME280_temperature;BME280_humidity;BME280_pressure;Samples;Min_cycle;Max_cycle;Signal;HPM_P1;HPM_P2
2023/07/18 00:00:33;;;;;;;8.75;4.95;;;14.40;99.90;;;;;;5051580;28;20128;-73
2023/07/18 00:02:59;;;;;;;8.15;4.22;;;14.30;99.90;;;;;;5060430;28;20033;-73
2023/07/18 00:05:28;;;;;;;9.70;4.97;;;14.30;99.90;;;;;;5060738;28;20094;-73
2023/07/18 00:07:54;;;;;;;6.75;4.32;;;14.20;99.90;;;;;;5060962;28;20171;-73
2023/07/18 00:10:20;;;;;;;8.50;4.38;;;14.20;99.90;;;;;;5047541;28;20140;-73
2023/07/18 00:12:46;;;;;;;8.27;4.00;;;14.20;99.90;;;;;;5070123;28;20141;-73
2023/07/18 00:15:12;;;;;;;8.50;4.43;;;14.20;99.90;;;;;;5062253;28;20510;-72
2023/07/18 00:17:40;;;;;;;9.65;4.53;;;14.20;99.90;;;;;;5068134;28;20032;-73
2023/07/18 00:20:12;;;;;;;7.72;4.97;;;14.20;99.90;;;;;;5043481;28;20510;-73
2023/07/18 00:22:41;;;;;;;7.95;5.20;;;14.20;99.90;;;;;;5027835;28;20509;-72
2023/07/18 00:25:11;;;;;;;8.75;5.00;;;14.20;99.90;;;;;;5062908;28;20200;-73
2023/07/18 00:27:40;;;;;;;9.70;5.78;;;14.20;99.90;;;;;;5059310;28;20037;-73
2023/07/18 00:30:13;;;;;;;9.60;5.22;;;14.10;99.90;;;;;;5060797;28;20131;-73
2023/07/18 00:32:44;;;;;;;7.43;5.10;;;14.10;99.90;;;;;;5049390;28;20047;-73
2023/07/18 00:35:11;;;;;;;10.52;5.80;;;14.10;99.90;;;;;;5056252;28;20082;-72
2023/07/18 00:37:42;;;;;;;11.95;5.57;;;14.10;99.90;;;;;;5040272;28;20045;-73
2023/07/18 00:40:11;;;;;;;;;;;14.10;99.90;;;;;;5069292;28;20040;-72
2023/07/18 00:42:46;;;;;;;9.05;5.38;;;14.10;99.90;;;;;;5045382;28;19921;-73
2023/07/18 00:45:13;;;;;;;10.85;5.40;;;14.10;99.90;;;;;;5059158;28;20098;-73
2023/07/18 00:47:41;;;;;;;9.05;5.40;;;14.00;99.90;;;;;;5063937;28;20044;-73
2023/07/18 00:50:09;;;;;;;8.90;5.20;;;14.10;99.90;;;;;;5055344;28;20041;-73
2023/07/18 00:52:38;;;;;;;8.20;5.28;;;14.00;99.90;;;;;;5060754;28;20041;-72
2023/07/18 00:55:04;;;;;;;7.35;4.68;;;14.00;99.90;;;;;;5053834;28;20040;-73
2023/07/18 00:57:31;;;;;;;9.32;5.03;;;14.00;99.90;;;;;;5065460;28;20041;-73
2023/07/18 00:59:57;;;;;;;8.27;5.13;;;14.00;99.90;;;;;;5056693;28;20404;-72
2023/07/18 01:02:23;;;;;;;8.27;4.93;;;13.90;99.90;;;;;;5040278;28;20045;-73
2023/07/18 01:04:49;;;;;;;11.02;6.03;;;13.90;99.90;;;;;;5068047;28;20040;-73
2023/07/18 01:07:15;;;;;;;9.73;5.00;;;13.90;99.90;;;;;;5057299;28;20653;-73
2023/07/18 01:09:43;;;;;;;10.82;5.18;;;13.90;99.90;;;;;;5056182;28;20045;-73
2023/07/18 01:12:09;;;;;;;13.00;6.35;;;13.90;99.90;;;;;;5060033;28;20055;-73
2023/07/18 01:14:35;;;;;;;10.02;4.85;;;13.90;99.90;;;;;;5064156;28;20029;-73
2023/07/18 01:17:01;;;;;;;10.02;4.88;;;13.90;99.90;;;;;;5059665;28;20143;-73
2023/07/18 01:19:26;;;;;;;9.60;5.45;;;13.80;99.90;;;;;;5062185;28;20036;-73
2023/07/18 01:21:52;;;;;;;10.70;5.15;;;13.80;99.90;;;;;;5063174;28;20040;-73
2023/07/18 01:24:18;;;;;;;9.43;5.90;;;13.80;99.90;;;;;;5049295;28;20584;-73
2023/07/18 01:26:44;;;;;;;9.52;5.25;;;13.80;99.90;;;;;;5056650;28;20076;-73
2023/07/18 01:29:10;;;;;;;8.82;4.95;;;13.80;99.90;;;;;;5049214;28;20139;-73
2023/07/18 01:31:36;;;;;;;8.90;5.45;;;13.80;99.90;;;;;;5057446;28;20112;-73
2023/07/18 01:34:02;;;;;;;9.70;4.88;;;13.80;99.90;;;;;;5060425;28;20123;-73
2023/07/18 01:36:29;;;;;;;9.15;5.88;;;13.80;99.90;;;;;;5039532;28;20277;-73
2023/07/18 01:38:55;;;;;;;9.55;5.28;;;13.80;99.90;;;;;;5038058;28;20076;-73
2023/07/18 01:41:21;;;;;;;10.98;6.50;;;13.80;99.90;;;;;;5053273;28;20045;-73
2023/07/18 01:43:46;;;;;;;11.38;6.38;;;13.80;99.90;;;;;;5050210;28;20049;-73
2023/07/18 01:46:12;;;;;;;12.13;6.45;;;13.80;99.90;;;;;;5039059;28;20151;-73
2023/07/18 01:48:38;;;;;;;9.48;4.45;;;13.80;99.90;;;;;;5039264;28;20048;-73
2023/07/18 01:51:04;;;;;;;7.85;4.50;;;13.80;99.90;;;;;;5054977;28;20040;-72
2023/07/18 01:53:30;;;;;;;8.25;4.20;;;13.70;99.90;;;;;;5054896;28;20059;-73
2023/07/18 01:56:01;;;;;;;9.65;4.63;;;13.60;99.90;;;;;;5052284;28;20055;-73
2023/07/18 01:58:27;;;;;;;8.98;3.95;;;13.50;99.90;;;;;;5054945;28;20080;-72
2023/07/18 02:00:53;;;;;;;8.70;4.32;;;13.40;99.90;;;;;;5036119;28;20558;-73
2023/07/18 02:03:19;;;;;;;10.98;4.47;;;13.30;99.90;;;;;;5057486;28;20305;-73
2023/07/18 02:05:44;;;;;;;9.43;4.32;;;13.30;99.90;;;;;;5053673;28;20056;-73
2023/07/18 02:08:10;;;;;;;9.73;4.85;;;13.30;99.90;;;;;;5055801;28;20741;-73
2023/07/18 02:10:36;;;;;;;7.88;4.05;;;13.30;99.90;;;;;;5057821;28;20036;-73
2023/07/18 02:13:03;;;;;;;10.32;4.63;;;13.30;99.90;;;;;;5058689;28;20048;-73
2023/07/18 02:15:28;;;;;;;9.40;4.40;;;13.20;99.90;;;;;;5056483;28;20036;-73
2023/07/18 02:17:54;;;;;;;7.15;4.05;;;13.20;99.90;;;;;;5040127;28;20615;-73
2023/07/18 02:20:20;;;;;;;8.75;4.38;;;13.20;99.90;;;;;;5057194;28;20048;-73
2023/07/18 02:22:46;;;;;;;9.93;5.53;;;13.20;99.90;;;;;;5042078;28;20040;-73
2023/07/18 02:25:15;;;;;;;8.45;4.70;;;13.20;99.90;;;;;;5054057;28;20059;-73
2023/07/18 02:27:41;;;;;;;8.30;4.60;;;13.20;99.90;;;;;;5042813;28;20044;-74
2023/07/18 02:30:09;;;;;;;9.73;4.72;;;13.20;99.90;;;;;;5041151;28;20055;-73
2023/07/18 02:32:35;;;;;;;10.63;5.75;;;13.30;99.90;;;;;;5043540;28;20044;-74
2023/07/18 02:35:01;;;;;;;7.80;4.90;;;13.30;99.90;;;;;;5055498;28;20051;-73
2023/07/18 02:37:27;;;;;;;9.30;4.70;;;13.20;99.90;;;;;;5052956;28;20041;-72
2023/07/18 02:39:53;;;;;;;9.02;4.90;;;13.20;99.90;;;;;;5059311;28;20044;-73
2023/07/18 02:42:19;;;;;;;10.18;5.10;;;13.20;99.90;;;;;;5056312;28;20120;-73
2023/07/18 02:44:46;;;;;;;8.20;4.78;;;13.10;99.90;;;;;;5041574;28;20041;-73
2023/07/18 02:47:13;;;;;;;9.65;5.47;;;13.10;99.90;;;;;;5060444;28;20052;-73
2023/07/18 02:49:39;;;;;;;7.95;5.40;;;13.10;99.90;;;;;;5058978;28;21384;-73
2023/07/18 02:52:05;;;;;;;9.20;5.32;;;13.10;99.90;;;;;;5056884;28;20050;-73
2023/07/18 02:54:31;;;;;;;9.00;5.13;;;13.00;99.90;;;;;;5045119;28;20059;-73
2023/07/18 02:56:58;;;;;;;11.13;5.65;;;13.00;99.90;;;;;;5044929;28;20910;-73
2023/07/18 02:59:24;;;;;;;8.88;5.00;;;13.10;99.90;;;;;;5041536;28;20119;-73
2023/07/18 03:01:50;;;;;;;10.43;4.85;;;13.00;99.90;;;;;;5047826;28;20070;-73
2023/07/18 03:04:16;;;;;;;9.35;6.22;;;13.00;99.90;;;;;;5060245;28;20403;-72
2023/07/18 03:06:43;;;;;;;9.57;5.22;;;13.00;99.90;;;;;;5061533;28;20422;-73
2023/07/18 03:09:10;;;;;;;12.02;5.93;;;13.10;99.90;;;;;;5058832;28;20057;-73
2023/07/18 03:11:36;;;;;;;11.07;5.57;;;13.00;99.90;;;;;;5058756;28;20048;-72
2023/07/18 03:14:02;;;;;;;11.57;6.28;;;13.00;99.90;;;;;;5046011;28;20045;-73
2023/07/18 03:16:28;;;;;;;8.48;5.38;;;13.00;99.90;;;;;;5060137;28;20048;-73
2023/07/18 03:18:54;;;;;;;10.48;5.63;;;13.00;99.90;;;;;;5058648;28;20044;-73
2023/07/18 03:21:20;;;;;;;9.02;5.10;;;13.00;99.90;;;;;;5057656;28;20342;-73
2023/07/18 03:23:46;;;;;;;8.10;5.55;;;13.00;99.90;;;;;;5062229;28;20033;-73
2023/07/18 03:26:11;;;;;;;9.73;5.40;;;13.00;99.90;;;;;;5062338;28;20060;-73
2023/07/18 03:28:37;;;;;;;9.85;5.75;;;13.00;99.90;;;;;;5058216;28;20040;-73
2023/07/18 03:31:04;;;;;;;10.35;6.28;;;13.00;99.90;;;;;;5043957;28;20962;-73
2023/07/18 03:33:30;;;;;;;9.52;6.20;;;13.10;99.90;;;;;;5060601;28;20044;-73
2023/07/18 03:35:57;;;;;;;9.40;4.93;;;13.10;99.90;;;;;;5059016;28;20102;-73
2023/07/18 03:38:23;;;;;;;11.57;5.60;;;13.10;99.90;;;;;;5058761;28;20113;-73
2023/07/18 03:40:49;;;;;;;11.63;6.25;;;13.00;99.90;;;;;;5059846;28;20491;-73
2023/07/18 03:43:15;;;;;;;11.63;6.13;;;13.00;99.90;;;;;;5057472;28;20044;-73
2023/07/18 03:45:41;;;;;;;11.77;5.30;;;13.00;99.90;;;;;;5059273;28;20044;-73
2023/07/18 03:48:07;;;;;;;10.55;5.35;;;13.00;99.90;;;;;;5058984;28;20094;-73
2023/07/18 03:50:32;;;;;;;11.43;5.53;;;13.00;99.90;;;;;;5060676;28;20567;-73
2023/07/18 03:52:58;;;;;;;10.75;5.80;;;13.00;99.90;;;;;;5059959;28;20403;-74
2023/07/18 03:55:24;;;;;;;13.05;6.25;;;13.10;99.90;;;;;;5043650;28;20052;-73
2023/07/18 03:57:50;;;;;;;14.48;6.28;;;13.10;99.90;;;;;;5062171;28;20067;-73
2023/07/18 04:00:17;;;;;;;13.80;6.78;;;13.10;99.90;;;;;;5059906;28;20044;-73
2023/07/18 04:02:45;;;;;;;10.50;6.28;;;13.10;99.90;;;;;;5045168;28;20518;-73
2023/07/18 04:05:13;;;;;;;10.80;6.03;;;13.10;99.90;;;;;;5055768;28;20515;-74
2023/07/18 04:07:41;;;;;;;10.63;5.88;;;13.10;99.90;;;;;;5043823;28;20036;-73
2023/07/18 04:10:11;;;;;;;13.45;6.65;;;13.10;99.90;;;;;;5059229;28;20064;-73
2023/07/18 04:12:38;;;;;;;11.40;5.75;;;13.10;99.90;;;;;;5061751;28;20036;-73
2023/07/18 04:15:06;;;;;;;11.65;6.18;;;13.20;99.90;;;;;;5045277;28;20068;-73
2023/07/18 04:17:32;;;;;;;9.95;5.35;;;13.20;99.90;;;;;;5059176;28;20339;-73
2023/07/18 04:20:01;;;;;;;11.65;6.03;;;13.20;99.90;;;;;;5060229;28;20059;-74
2023/07/18 04:22:29;;;;;;;10.05;5.88;;;13.20;99.90;;;;;;5055838;28;20510;-73
2023/07/18 04:24:55;;;;;;;15.30;6.80;;;13.20;99.90;;;;;;5061400;28;20505;-73
2023/07/18 04:27:22;;;;;;;13.57;6.25;;;13.20;99.90;;;;;;5021157;28;20045;-74
2023/07/18 04:29:49;;;;;;;13.48;6.40;;;13.30;99.90;;;;;;5024963;28;20044;-73
2023/07/18 04:32:17;;;;;;;14.55;6.88;;;13.30;99.90;;;;;;5040848;28;20056;-73
2023/07/18 04:34:42;;;;;;;15.25;7.38;;;13.40;99.90;;;;;;5042552;28;20138;-73
2023/07/18 04:37:08;;;;;;;12.30;6.55;;;13.40;99.90;;;;;;5041504;28;20047;-73
2023/07/18 04:39:34;;;;;;;11.38;6.72;;;13.50;99.90;;;;;;5042441;28;20054;-73
2023/07/18 04:42:00;;;;;;;16.90;7.40;;;13.50;99.90;;;;;;5041534;28;20052;-74
2023/07/18 04:44:26;;;;;;;16.42;7.47;;;13.60;99.90;;;;;;5043004;28;20283;-73
2023/07/18 04:46:55;;;;;;;13.20;7.60;;;13.60;99.90;;;;;;5025995;28;20071;-73
2023/07/18 04:49:22;;;;;;;12.18;7.32;;;13.60;99.90;;;;;;5040435;28;20063;-73
2023/07/18 04:51:48;;;;;;;26.65;8.70;;;13.70;99.90;;;;;;5042833;28;20055;-73
2023/07/18 04:54:14;;;;;;;12.18;6.90;;;13.70;99.90;;;;;;5043682;28;21322;-74
2023/07/18 04:56:40;;;;;;;14.70;7.50;;;13.70;99.90;;;;;;5035664;28;20040;-73
2023/07/18 04:59:06;;;;;;;15.40;6.82;;;13.70;99.90;;;;;;5025397;28;20071;-73
2023/07/18 05:01:32;;;;;;;14.65;6.32;;;13.80;99.90;;;;;;5025179;28;20502;-73
2023/07/18 05:03:58;;;;;;;13.45;6.85;;;13.80;99.90;;;;;;5042945;28;20825;-74
2023/07/18 05:06:25;;;;;;;14.48;7.28;;;13.80;99.90;;;;;;5024221;28;20135;-73
2023/07/18 05:08:50;;;;;;;10.73;6.70;;;13.90;99.90;;;;;;5027000;28;20047;-73
2023/07/18 05:11:17;;;;;;;14.68;7.47;;;13.80;99.90;;;;;;5026671;28;20063;-73
2023/07/18 05:13:43;;;;;;;13.23;7.45;;;13.90;99.90;;;;;;5042073;28;20672;-73
2023/07/18 05:16:09;;;;;;;14.32;6.93;;;13.90;99.90;;;;;;5039238;28;21056;-74
2023/07/18 05:18:34;;;;;;;14.18;7.22;;;13.90;99.90;;;;;;5043244;28;20040;-74
2023/07/18 05:21:00;;;;;;;12.57;6.97;;;13.90;99.90;;;;;;5021321;28;20059;-73
2023/07/18 05:23:26;;;;;;;11.68;7.13;;;14.00;99.90;;;;;;5026919;28;20052;-73
2023/07/18 05:25:53;;;;;;;14.27;7.13;;;14.00;99.90;;;;;;5024413;28;20052;-73
2023/07/18 05:28:19;;;;;;;14.85;7.28;;;14.10;99.90;;;;;;5026726;28;20043;-73
2023/07/18 05:30:45;;;;;;;12.48;6.78;;;14.10;99.90;;;;;;5040639;28;20104;-73
2023/07/18 05:33:12;;;;;;;13.30;6.97;;;14.20;99.90;;;;;;5025793;28;20051;-73
2023/07/18 05:35:38;;;;;;;12.75;6.25;;;14.30;99.90;;;;;;5024270;28;20045;-73
2023/07/18 05:38:04;;;;;;;14.00;6.53;;;14.30;99.90;;;;;;5042260;28;20513;-73
2023/07/18 05:40:30;;;;;;;14.10;6.57;;;14.30;99.90;;;;;;5041751;28;20523;-73
2023/07/18 05:42:55;;;;;;;11.05;6.35;;;14.40;99.90;;;;;;5040082;28;20356;-73
2023/07/18 05:45:21;;;;;;;13.68;6.18;;;14.40;99.90;;;;;;5041198;28;20482;-73
2023/07/18 05:47:47;;;;;;;14.07;6.75;;;14.50;99.90;;;;;;5058402;28;20687;-73
2023/07/18 05:50:13;;;;;;;11.57;6.53;;;14.50;99.90;;;;;;5024268;28;20049;-73
2023/07/18 05:52:39;;;;;;;13.88;7.05;;;14.60;99.90;;;;;;5025101;28;20056;-73
2023/07/18 05:55:05;;;;;;;13.25;6.78;;;14.60;99.90;;;;;;5042375;28;20061;-73
2023/07/18 05:57:31;;;;;;;14.48;6.57;;;14.70;99.90;;;;;;5023792;28;20044;-73
2023/07/18 05:59:57;;;;;;;11.40;6.13;;;14.80;99.90;;;;;;5028053;28;20044;-73
2023/07/18 06:02:23;;;;;;;13.38;6.68;;;14.80;99.90;;;;;;5039949;28;20436;-73
2023/07/18 06:04:49;;;;;;;15.93;6.63;;;14.90;99.90;;;;;;5044300;28;20044;-73
2023/07/18 06:07:15;;;;;;;16.33;6.38;;;15.00;99.90;;;;;;5041248;28;20136;-74
2023/07/18 06:09:42;;;;;;;10.10;5.55;;;15.00;99.90;;;;;;5026679;28;20063;-73
2023/07/18 06:12:08;;;;;;;13.32;5.40;;;15.10;99.90;;;;;;5039810;28;20061;-73
2023/07/18 06:14:34;;;;;;;13.10;5.90;;;15.10;99.90;;;;;;5042753;28;20136;-74
2023/07/18 06:17:02;;;;;;;11.75;5.25;;;15.20;99.90;;;;;;5025538;28;20056;-73
2023/07/18 06:19:27;;;;;;;9.93;5.10;;;15.30;99.90;;;;;;5041379;28;20713;-74
2023/07/18 06:21:53;;;;;;;11.90;4.72;;;15.30;99.90;;;;;;5025987;28;20525;-73
2023/07/18 06:24:19;;;;;;;11.77;5.40;;;15.40;99.90;;;;;;5040907;28;20056;-74
2023/07/18 06:26:48;;;;;;;17.80;7.35;;;15.40;99.90;;;;;;5025232;28;20055;-74
2023/07/18 06:29:17;;;;;;;14.98;6.15;;;15.40;99.90;;;;;;5029806;28;20244;-74
2023/07/18 06:31:44;;;;;;;13.15;5.10;;;15.50;99.90;;;;;;5043635;28;20057;-74
2023/07/18 06:34:10;;;;;;;11.75;5.68;;;15.50;99.90;;;;;;5029731;28;20059;-74
2023/07/18 06:36:36;;;;;;;14.88;5.32;;;15.60;99.90;;;;;;5028701;28;20076;-73
2023/07/18 06:39:01;;;;;;;9.60;4.35;;;15.70;99.90;;;;;;5044147;28;20684;-74
2023/07/18 06:41:27;;;;;;;10.55;5.10;;;15.80;99.90;;;;;;5043032;28;20385;-74
2023/07/18 06:43:53;;;;;;;10.00;4.55;;;15.90;99.90;;;;;;5045230;28;20205;-75
2023/07/18 06:46:19;;;;;;;12.68;5.10;;;16.00;99.90;;;;;;5041836;28;20188;-74
2023/07/18 06:48:45;;;;;;;10.30;5.28;;;16.00;99.90;;;;;;5042547;28;20135;-74
2023/07/18 06:51:11;;;;;;;9.25;4.40;;;16.00;99.90;;;;;;5027102;28;20057;-74
2023/07/18 06:53:40;;;;;;;12.35;4.60;;;16.10;99.90;;;;;;5045887;28;20067;-74
2023/07/18 06:56:06;;;;;;;10.15;5.00;;;16.10;99.90;;;;;;5046871;28;20399;-74
2023/07/18 06:58:32;;;;;;;9.63;4.53;;;16.10;99.90;;;;;;5044547;28;20414;-74
2023/07/18 07:00:57;;;;;;;12.20;4.75;;;16.20;99.90;;;;;;5025120;28;20052;-74
2023/07/18 07:03:23;;;;;;;8.77;4.43;;;16.20;99.90;;;;;;5043220;28;20072;-73
2023/07/18 07:05:49;;;;;;;11.60;4.75;;;16.30;99.90;;;;;;5025378;28;20052;-74
2023/07/18 07:08:18;;;;;;;10.00;4.70;;;16.30;99.90;;;;;;5027813;28;20140;-74
2023/07/18 07:10:45;;;;;;;11.50;4.75;;;16.40;99.90;;;;;;5030437;28;20478;-74
2023/07/18 07:13:11;;;;;;;8.60;4.90;;;16.50;99.90;;;;;;5027013;28;20138;-74
2023/07/18 07:15:38;;;;;;;8.80;4.55;;;16.50;99.90;;;;;;5044416;28;20086;-74
2023/07/18 07:18:05;;;;;;;10.05;4.65;;;16.60;99.90;;;;;;5043637;28;20573;-74
2023/07/18 07:20:33;;;;;;;11.85;5.00;;;16.60;99.90;;;;;;5042565;28;20052;-73
2023/07/18 07:22:59;;;;;;;9.80;4.63;;;16.60;99.90;;;;;;5047267;28;20048;-74
2023/07/18 07:25:30;;;;;;;12.52;5.03;;;16.60;99.90;;;;;;5043875;28;20044;-74
2023/07/18 07:27:56;;;;;;;10.82;4.90;;;16.60;99.90;;;;;;5046982;28;20052;-74
2023/07/18 07:30:22;;;;;;;10.57;4.85;;;16.60;99.90;;;;;;5042490;28;20694;-73
2023/07/18 07:32:52;;;;;;;11.52;4.78;;;16.70;99.90;;;;;;5042813;28;20056;-74
2023/07/18 07:35:20;;;;;;;11.10;5.38;;;16.70;99.90;;;;;;5026796;28;20092;-73
2023/07/18 07:37:47;;;;;;;12.60;5.70;;;16.90;99.90;;;;;;5027280;28;20163;-74
2023/07/18 07:40:13;;;;;;;13.85;5.13;;;17.00;99.90;;;;;;5043484;28;20098;-75
2023/07/18 07:42:40;;;;;;;11.13;4.97;;;17.20;99.90;;;;;;5042301;28;20037;-75
2023/07/18 07:45:07;;;;;;;16.17;5.40;;;17.40;99.90;;;;;;5043390;28;20123;-74
2023/07/18 07:47:34;;;;;;;11.18;5.00;;;17.50;99.90;;;;;;5041812;28;20324;-75
2023/07/18 07:50:01;;;;;;;14.43;5.45;;;17.60;99.90;;;;;;5044469;28;20110;-74
2023/07/18 07:52:28;;;;;;;14.23;5.20;;;17.60;99.90;;;;;;5029367;28;20138;-75
2023/07/18 07:54:54;;;;;;;11.10;4.85;;;17.70;99.90;;;;;;5042534;28;20541;-74
2023/07/18 07:57:20;;;;;;;12.23;4.65;;;17.80;99.90;;;;;;5045180;28;20048;-75
2023/07/18 07:59:50;;;;;;;14.02;5.55;;;17.90;99.90;;;;;;5043520;28;20098;-74
2023/07/18 08:02:16;;;;;;;12.20;4.75;;;18.00;99.90;;;;;;5039722;28;20141;-74
2023/07/18 08:04:42;;;;;;;16.40;5.90;;;18.20;99.90;;;;;;5041628;28;20059;-73
2023/07/18 08:07:10;;;;;;;13.10;5.43;;;18.20;99.90;;;;;;5039645;28;21166;-74
2023/07/18 08:09:36;;;;;;;14.70;5.75;;;18.30;99.90;;;;;;5040286;28;20111;-73
2023/07/18 08:12:03;;;;;;;13.32;5.85;;;18.20;99.90;;;;;;5040267;28;20724;-74
2023/07/18 08:14:33;;;;;;;14.05;5.88;;;18.20;99.90;;;;;;5026673;28;20065;-74
2023/07/18 08:16:59;;;;;;;15.15;6.25;;;18.30;99.90;;;;;;5026162;28;20060;-74
2023/07/18 08:19:25;;;;;;;12.95;5.93;;;18.50;99.90;;;;;;5042909;28;20054;-74
2023/07/18 08:21:51;;;;;;;13.60;5.43;;;18.80;99.90;;;;;;5026832;28;20086;-74
2023/07/18 08:24:17;;;;;;;12.57;6.03;;;19.10;99.90;;;;;;5041265;28;20746;-73
2023/07/18 08:26:43;;;;;;;14.32;6.47;;;19.40;99.90;;;;;;5040013;28;20047;-74
2023/07/18 08:29:09;;;;;;;13.52;5.80;;;19.60;99.90;;;;;;5037335;28;20052;-74
2023/07/18 08:31:35;;;;;;;12.88;6.10;;;19.80;99.90;;;;;;5021445;28;20044;-74
2023/07/18 08:34:01;;;;;;;14.55;6.22;;;19.90;99.90;;;;;;5041444;28;20052;-74
2023/07/18 08:36:27;;;;;;;11.38;4.85;;;20.00;99.90;;;;;;5039426;28;20170;-75
2023/07/18 08:38:53;;;;;;;13.57;5.80;;;20.20;99.90;;;;;;5020309;28;20103;-74
2023/07/18 08:41:22;;;;;;;14.75;6.22;;;20.30;99.90;;;;;;5043515;28;20138;-74
2023/07/18 08:43:49;;;;;;;12.88;5.30;;;20.40;99.90;;;;;;5039177;28;20105;-74
2023/07/18 08:46:16;;;;;;;10.23;5.25;;;20.40;99.90;;;;;;5040290;28;20053;-73
2023/07/18 08:48:45;;;;;;;13.98;5.43;;;20.40;99.90;;;;;;5024728;28;20712;-74
2023/07/18 08:51:12;;;;;;;10.23;4.00;;;20.30;99.90;;;;;;5036905;28;21094;-74
2023/07/18 08:53:39;;;;;;;11.70;4.18;;;20.20;99.90;;;;;;5026350;28;20064;-75
2023/07/18 08:56:08;;;;;;;10.52;3.70;;;20.30;99.90;;;;;;5041053;28;20048;-75
2023/07/18 08:58:36;;;;;;;11.07;3.60;;;20.40;99.90;;;;;;5039164;28;20418;-74
2023/07/18 09:01:03;;;;;;;11.77;3.30;;;20.60;99.90;;;;;;5039228;28;20062;-74
2023/07/18 09:03:29;;;;;;;9.73;3.35;;;20.60;99.90;;;;;;5026012;28;20044;-74
2023/07/18 09:05:55;;;;;;;11.02;3.80;;;20.60;99.90;;;;;;5044025;28;20052;-74
2023/07/18 09:08:22;;;;;;;11.95;3.17;;;20.60;99.90;;;;;;5042593;28;20056;-74
2023/07/18 09:11:00;;;;;;;11.15;3.70;;;20.80;99.90;;;;;;5041321;28;20148;-75
2023/07/18 09:13:25;;;;;;;13.05;3.67;;;21.00;99.90;;;;;;5033950;28;20052;-74
2023/07/18 09:15:51;;;;;;;7.35;2.70;;;21.30;99.90;;;;;;5060142;28;20032;-74
2023/07/18 09:18:17;;;;;;;8.60;2.55;;;21.30;99.90;;;;;;5043326;28;20480;-74
2023/07/18 09:20:44;;;;;;;10.88;2.90;;;21.50;99.90;;;;;;5062077;28;20044;-74
2023/07/18 09:23:13;;;;;;;7.60;2.55;;;21.60;99.90;;;;;;5061910;28;20044;-74
2023/07/18 09:25:42;;;;;;;9.00;2.97;;;21.70;99.90;;;;;;5065891;28;20044;-74
2023/07/18 09:28:12;;;;;;;7.80;2.40;;;21.80;99.90;;;;;;5044285;28;20075;-74
2023/07/18 09:30:37;;;;;;;8.52;2.60;;;22.00;99.90;;;;;;5059717;28;20279;-74
2023/07/18 09:33:05;;;;;;;7.95;2.58;;;22.10;99.90;;;;;;5064733;28;20097;-74
2023/07/18 09:35:34;;;;;;;8.30;2.55;;;22.10;99.90;;;;;;5044288;28;20063;-74
2023/07/18 09:38:01;;;;;;;7.50;2.25;;;22.00;99.90;;;;;;5061407;28;20063;-75
2023/07/18 09:40:27;;;;;;;10.48;2.50;;;22.10;99.90;;;;;;5044675;28;20059;-75
2023/07/18 09:42:53;;;;;;;8.48;2.30;;;22.20;99.90;;;;;;5044204;28;20053;-74
2023/07/18 09:45:20;;;;;;;8.23;2.67;;;22.30;99.90;;;;;;5041309;28;20045;-74
2023/07/18 09:47:46;;;;;;;7.55;2.47;;;22.50;99.90;;;;;;5037462;28;20174;-75
2023/07/18 09:50:13;;;;;;;7.18;2.30;;;22.50;99.90;;;;;;5059961;28;20102;-75
2023/07/18 09:52:50;;;;;;;8.25;1.90;;;22.60;99.90;;;;;;5062977;28;20510;-75
2023/07/18 09:55:21;;;;;;;9.40;2.00;;;22.70;99.90;;;;;;5060012;28;20052;-75
2023/07/18 09:57:49;;;;;;;7.75;2.33;;;22.80;99.90;;;;;;5064913;28;20121;-75
2023/07/18 10:00:15;;;;;;;6.90;2.20;;;22.90;99.90;;;;;;5059116;28;20075;-75
2023/07/18 10:02:42;;;;;;;6.55;2.08;;;23.00;99.90;;;;;;5050262;28;20036;-76
2023/07/18 10:05:14;;;;;;;8.00;1.80;;;23.00;99.90;;;;;;5046932;28;20037;-75
2023/07/18 10:07:40;;;;;;;7.53;1.60;;;22.80;99.90;;;;;;5056865;28;20118;-76
2023/07/18 10:10:10;;;;;;;7.88;2.05;;;22.80;99.90;;;;;;5071438;28;20490;-76
2023/07/18 10:12:59;;;;;;;8.63;2.28;;;22.70;99.90;;;;;;5071180;28;20048;-75
2023/07/18 10:15:27;;;;;;;5.50;1.92;;;22.60;99.90;;;;;;5062382;28;20048;-76
2023/07/18 10:17:53;;;;;;;7.03;1.90;;;22.60;99.90;;;;;;5057442;28;20506;-75
2023/07/18 10:20:20;;;;;;;5.97;1.92;;;22.60;99.90;;;;;;5066079;28;20056;-73
2023/07/18 10:23:04;;;;;;;5.93;1.90;;;22.70;99.90;;;;;;5062170;28;20036;-73
2023/07/18 10:25:32;;;;;;;7.80;1.95;;;22.70;99.90;;;;;;5058978;28;20087;-73
2023/07/18 10:27:59;;;;;;;7.15;1.85;;;22.70;99.90;;;;;;5066155;28;20192;-73
2023/07/18 10:30:42;;;;;;;4.72;1.77;;;22.70;99.90;;;;;;5035256;28;20630;-75
2023/07/18 10:33:13;;;;;;;5.32;1.60;;;22.80;99.90;;;;;;5046231;28;20705;-75
2023/07/18 10:35:43;;;;;;;7.22;2.00;;;22.90;99.90;;;;;;5041783;28;20053;-75
2023/07/18 10:38:09;;;;;;;6.85;1.85;;;22.90;99.90;;;;;;5042619;28;20053;-75
2023/07/18 10:40:37;;;;;;;3.72;1.17;;;23.00;99.90;;;;;;5049740;28;20523;-75
2023/07/18 10:43:08;;;;;;;6.38;1.90;;;23.00;99.90;;;;;;5032302;28;20044;-75
2023/07/18 10:45:39;;;;;;;6.30;1.50;;;23.10;99.90;;;;;;5031738;28;20209;-75
2023/07/18 10:48:19;;;;;;;3.70;1.40;;;23.20;99.90;;;;;;5051773;28;20041;-75
2023/07/18 10:50:47;;;;;;;4.50;1.17;;;23.30;99.90;;;;;;5049287;28;20044;-75
2023/07/18 10:53:18;;;;;;;6.65;1.50;;;23.40;99.90;;;;;;5060168;28;20514;-75
2023/07/18 10:55:45;;;;;;;4.38;1.45;;;23.50;99.90;;;;;;5036818;28;20138;-75
2023/07/18 10:58:19;;;;;;;5.68;1.48;;;23.60;99.90;;;;;;5043788;28;20094;-75
2023/07/18 11:00:46;;;;;;;7.00;1.75;;;23.70;99.90;;;;;;5043868;28;20048;-75
2023/07/18 11:03:21;;;;;;;6.03;1.50;;;23.70;99.80;;;;;;5051929;28;20075;-75
2023/07/18 11:05:49;;;;;;;3.67;1.52;;;23.80;98.80;;;;;;5058317;28;20044;-76
2023/07/18 11:08:29;;;;;;;6.38;1.33;;;23.80;98.50;;;;;;5037887;28;20064;-75
2023/07/18 11:11:05;;;;;;;5.78;1.60;;;23.80;97.00;;;;;;5041588;28;20086;-75
2023/07/18 11:13:33;;;;;;;5.78;1.40;;;23.90;96.70;;;;;;5069338;28;20557;-75
2023/07/18 11:16:02;;;;;;;4.32;1.25;;;23.90;96.20;;;;;;5048673;28;20685;-75
2023/07/18 11:18:33;;;;;;;5.53;1.60;;;24.10;96.80;;;;;;5055975;28;20049;-75
2023/07/18 11:21:02;;;;;;;3.47;1.20;;;24.30;95.00;;;;;;5055141;28;20036;-75
2023/07/18 11:23:28;;;;;;;4.57;1.25;;;24.40;94.00;;;;;;5041493;28;20466;-73
2023/07/18 11:25:54;;;;;;;3.88;1.20;;;24.40;93.40;;;;;;5042360;28;20048;-74
2023/07/18 11:28:20;;;;;;;3.17;1.10;;;24.40;93.20;;;;;;5054817;28;20052;-73
2023/07/18 11:30:46;;;;;;;4.40;1.58;;;24.40;91.10;;;;;;5060972;28;20044;-74
2023/07/18 11:33:13;;;;;;;3.95;1.30;;;24.40;90.30;;;;;;5065629;28;20065;-74
2023/07/18 11:35:45;;;;;;;4.40;0.95;;;24.40;90.50;;;;;;5043560;28;20131;-74
2023/07/18 11:38:11;;;;;;;4.05;1.00;;;24.50;91.30;;;;;;5055063;28;20132;-74
2023/07/18 11:40:37;;;;;;;4.38;1.10;;;24.60;92.00;;;;;;5055079;28;20048;-74
2023/07/18 11:43:03;;;;;;;2.97;1.05;;;24.60;92.10;;;;;;5061588;28;20041;-74
2023/07/18 11:45:29;;;;;;;4.68;1.10;;;24.60;90.50;;;;;;5040260;28;20090;-74
2023/07/18 11:48:00;;;;;;;3.65;0.85;;;24.60;88.30;;;;;;5049196;28;20040;-74
2023/07/18 11:50:27;;;;;;;2.80;1.00;;;24.50;87.70;;;;;;5044194;28;20871;-74
2023/07/18 11:52:54;;;;;;;4.35;0.80;;;24.30;86.80;;;;;;5062027;28;20041;-74
2023/07/18 11:55:22;;;;;;;4.13;0.90;;;24.20;86.30;;;;;;5065166;28;20571;-74
2023/07/18 11:57:49;;;;;;;6.18;1.17;;;24.20;88.20;;;;;;5048942;28;20617;-74
2023/07/18 12:00:16;;;;;;;3.70;1.10;;;24.30;89.00;;;;;;5065083;28;20138;-74
2023/07/18 12:02:43;;;;;;;5.20;1.75;;;24.40;90.10;;;;;;5051583;28;20074;-74
2023/07/18 12:05:10;;;;;;;5.10;1.20;;;24.50;90.00;;;;;;5036681;28;20080;-75
2023/07/18 12:07:36;;;;;;;5.10;0.90;;;24.50;87.30;;;;;;5042865;28;20388;-74
2023/07/18 12:10:10;;;;;;;4.60;1.33;;;24.50;87.80;;;;;;5040352;28;20139;-74
2023/07/18 12:12:39;;;;;;;7.13;1.27;;;24.30;89.10;;;;;;5037311;28;20037;-74
2023/07/18 12:15:09;;;;;;;2.75;0.80;;;24.10;90.50;;;;;;5043626;28;20047;-74
2023/07/18 12:17:35;;;;;;;5.97;1.52;;;23.90;90.90;;;;;;5037037;28;20559;-74
2023/07/18 12:20:01;;;;;;;2.97;1.30;;;23.80;91.50;;;;;;5057954;28;20040;-74
2023/07/18 12:22:27;;;;;;;4.25;1.20;;;23.70;93.00;;;;;;5033560;28;20102;-74
2023/07/18 12:24:53;;;;;;;3.42;1.17;;;23.80;93.20;;;;;;5042471;28;20123;-74
2023/07/18 12:27:19;;;;;;;4.57;1.30;;;23.90;92.70;;;;;;5046148;28;20118;-74
2023/07/18 12:29:45;;;;;;;4.20;1.13;;;24.10;93.00;;;;;;5051803;28;20047;-74
2023/07/18 12:32:11;;;;;;;4.22;1.08;;;24.30;93.20;;;;;;5055177;28;20045;-74
2023/07/18 12:34:41;;;;;;;3.65;1.00;;;24.50;92.30;;;;;;5053707;28;20481;-74
2023/07/18 12:37:07;;;;;;;3.63;1.50;;;24.70;90.80;;;;;;5049939;28;20045;-74
2023/07/18 12:39:33;;;;;;;3.03;1.10;;;24.90;88.70;;;;;;5047246;28;20051;-74
2023/07/18 12:41:59;;;;;;;4.30;1.20;;;25.00;86.20;;;;;;5053714;28;20093;-74